sensor_id;sensor_type;location;lat;lon;timestamp;temperature;humidity
19224;DHT22;9746;47.180;9.776;2022-08-25T10:45:36;32.10;99.90
19224;DHT22;9746;47.180;9.776;2022-08-25T10:48:41;32.30;99.90
19224;DHT22;9746;47.180;9.776;2022-08-25T10:51:28;32.50;99.90
19224;DHT22;9746;47.180;9.776;2022-08-25T10:54:03;32.70;99.90
19224;DHT22;9746;47.180;9.776;2022-08-25T10:56:34;32.80;99.90
19224;DHT22;9746;47.180;9.776;2022-08-25T10:59:25;32.90;99.90
19224;DHT22;9746;47.180;9.776;2022-08-25T11:02:10;33.20;99.90
19224;DHT22;9746;47.180;9.776;2022-08-25T11:04:44;33.50;99.90
19224;DHT22;9746;47.180;9.776;2022-08-25T11:07:18;33.90;99.90
19224;DHT22;9746;47.180;9.776;2022-08-25T11:09:48;34.20;99.90
19224;DHT22;9746;47.180;9.776;2022-08-25T11:12:23;34.60;99.90
19224;DHT22;9746;47.180;9.776;2022-08-25T11:14:56;34.90;99.90
19224;DHT22;9746;47.180;9.776;2022-08-25T11:17:37;35.20;99.70
19224;DHT22;9746;47.180;9.776;2022-08-25T11:20:10;35.60;99.30
19224;DHT22;9746;47.180;9.776;2022-08-25T11:22:42;35.80;98.20
19224;DHT22;9746;47.180;9.776;2022-08-25T11:25:15;35.90;97.70
19224;DHT22;9746;47.180;9.776;2022-08-25T11:27:48;36.30;96.30
19224;DHT22;9746;47.180;9.776;2022-08-25T11:30:18;36.50;94.70
19224;DHT22;9746;47.180;9.776;2022-08-25T11:32:49;36.70;95.30
19224;DHT22;9746;47.180;9.776;2022-08-25T11:35:24;36.80;94.10
19224;DHT22;9746;47.180;9.776;2022-08-25T11:38:09;37.00;94.30
19224;DHT22;9746;47.180;9.776;2022-08-25T11:40:49;37.30;93.90
19224;DHT22;9746;47.180;9.776;2022-08-25T11:43:36;37.60;93.90
19224;DHT22;9746;47.180;9.776;2022-08-25T11:46:21;37.90;92.60
19224;DHT22;9746;47.180;9.776;2022-08-25T11:49:00;38.30;93.20
19224;DHT22;9746;47.180;9.776;2022-08-25T11:51:32;38.70;92.30
19224;DHT22;9746;47.180;9.776;2022-08-25T11:54:15;39.00;91.60
19224;DHT22;9746;47.180;9.776;2022-08-25T11:56:52;39.30;92.20
19224;DHT22;9746;47.180;9.776;2022-08-25T12:02:32;39.50;90.00
19224;DHT22;9746;47.180;9.776;2022-08-25T12:05:04;39.90;89.30
19224;DHT22;9746;47.180;9.776;2022-08-25T12:07:56;40.10;89.00
19224;DHT22;9746;47.180;9.776;2022-08-25T12:10:56;40.40;88.00
19224;DHT22;9746;47.180;9.776;2022-08-25T12:13:42;40.60;87.70
19224;DHT22;9746;47.180;9.776;2022-08-25T12:16:36;40.70;86.90
19224;DHT22;9746;47.180;9.776;2022-08-25T12:19:28;41.20;85.10
19224;DHT22;9746;47.180;9.776;2022-08-25T12:22:37;41.50;85.30
19224;DHT22;9746;47.180;9.776;2022-08-25T12:24:51;41.70;83.70
19224;DHT22;9746;47.180;9.776;2022-08-25T12:27:24;41.80;82.30
19224;DHT22;9746;47.180;9.776;2022-08-25T12:29:59;42.00;83.30
19224;DHT22;9746;47.180;9.776;2022-08-25T12:32:52;42.30;81.90
19224;DHT22;9746;47.180;9.776;2022-08-25T12:35:28;42.60;80.90
19224;DHT22;9746;47.180;9.776;2022-08-25T12:38:02;42.60;81.50
19224;DHT22;9746;47.180;9.776;2022-08-25T12:40:36;43.00;78.20
19224;DHT22;9746;47.180;9.776;2022-08-25T12:43:10;43.20;80.00
19224;DHT22;9746;47.180;9.776;2022-08-25T12:45:41;43.60;77.80
19224;DHT22;9746;47.180;9.776;2022-08-25T12:48:39;43.80;78.20
19224;DHT22;9746;47.180;9.776;2022-08-25T12:51:14;43.90;77.00
19224;DHT22;9746;47.180;9.776;2022-08-25T12:53:45;44.50;76.40
19224;DHT22;9746;47.180;9.776;2022-08-25T12:56:31;44.90;75.00
19224;DHT22;9746;47.180;9.776;2022-08-25T12:59:15;45.20;72.80
19224;DHT22;9746;47.180;9.776;2022-08-25T13:02:15;45.50;71.80
19224;DHT22;9746;47.180;9.776;2022-08-25T13:05:16;45.50;73.40
19224;DHT22;9746;47.180;9.776;2022-08-25T13:08:00;46.00;70.80
19224;DHT22;9746;47.180;9.776;2022-08-25T13:10:44;46.10;70.00
19224;DHT22;9746;47.180;9.776;2022-08-25T13:13:23;46.70;70.80
19224;DHT22;9746;47.180;9.776;2022-08-25T13:15:59;46.80;66.70
19224;DHT22;9746;47.180;9.776;2022-08-25T13:18:28;47.00;66.00
19224;DHT22;9746;47.180;9.776;2022-08-25T13:21:04;46.40;65.50
19224;DHT22;9746;47.180;9.776;2022-08-25T13:23:36;45.90;66.80
19224;DHT22;9746;47.180;9.776;2022-08-25T13:26:04;45.60;65.20
19224;DHT22;9746;47.180;9.776;2022-08-25T13:28:36;43.40;67.80
19224;DHT22;9746;47.180;9.776;2022-08-25T13:31:07;42.70;69.30
19224;DHT22;9746;47.180;9.776;2022-08-25T13:33:35;42.90;69.00
19224;DHT22;9746;47.180;9.776;2022-08-25T13:36:04;41.90;70.40
19224;DHT22;9746;47.180;9.776;2022-08-25T13:38:49;41.70;72.40
19224;DHT22;9746;47.180;9.776;2022-08-25T13:41:19;42.20;70.60
19224;DHT22;9746;47.180;9.776;2022-08-25T13:43:50;42.80;70.10
19224;DHT22;9746;47.180;9.776;2022-08-25T13:46:19;43.00;69.60
19224;DHT22;9746;47.180;9.776;2022-08-25T13:48:47;43.20;70.10
19224;DHT22;9746;47.180;9.776;2022-08-25T13:51:21;43.60;68.50
19224;DHT22;9746;47.180;9.776;2022-08-25T13:53:54;42.80;69.00
19224;DHT22;9746;47.180;9.776;2022-08-25T13:56:24;43.00;68.10
19224;DHT22;9746;47.180;9.776;2022-08-25T13:58:56;41.60;70.50
19224;DHT22;9746;47.180;9.776;2022-08-25T14:01:26;41.50;71.40
19224;DHT22;9746;47.180;9.776;2022-08-25T14:04:19;41.30;71.20
19224;DHT22;9746;47.180;9.776;2022-08-25T14:06:45;41.00;71.80
19224;DHT22;9746;47.180;9.776;2022-08-25T14:09:14;40.70;72.00
19224;DHT22;9746;47.180;9.776;2022-08-25T14:11:46;40.20;73.30
19224;DHT22;9746;47.180;9.776;2022-08-25T14:14:31;41.30;72.70
19224;DHT22;9746;47.180;9.776;2022-08-25T14:17:03;40.40;72.10
19224;DHT22;9746;47.180;9.776;2022-08-25T14:19:32;40.40;72.10
19224;DHT22;9746;47.180;9.776;2022-08-25T14:22:01;39.80;73.90
19224;DHT22;9746;47.180;9.776;2022-08-25T14:24:32;40.00;72.90
19224;DHT22;9746;47.180;9.776;2022-08-25T14:27:01;41.10;73.20
19224;DHT22;9746;47.180;9.776;2022-08-25T14:29:29;41.10;71.80
19224;DHT22;9746;47.180;9.776;2022-08-25T14:31:59;41.50;71.50
19224;DHT22;9746;47.180;9.776;2022-08-25T14:34:29;41.90;69.70
19224;DHT22;9746;47.180;9.776;2022-08-25T14:36:58;42.00;70.50
19224;DHT22;9746;47.180;9.776;2022-08-25T14:39:26;42.50;70.30
19224;DHT22;9746;47.180;9.776;2022-08-25T14:41:54;43.40;69.40
19224;DHT22;9746;47.180;9.776;2022-08-25T14:44:21;43.80;70.40
19224;DHT22;9746;47.180;9.776;2022-08-25T14:46:50;44.40;68.30
19224;DHT22;9746;47.180;9.776;2022-08-25T14:49:23;43.40;67.90
19224;DHT22;9746;47.180;9.776;2022-08-25T14:51:55;43.80;70.40
19224;DHT22;9746;47.180;9.776;2022-08-25T14:54:26;44.50;67.80
19224;DHT22;9746;47.180;9.776;2022-08-25T14:56:54;45.60;67.10
19224;DHT22;9746;47.180;9.776;2022-08-25T14:59:22;45.70;66.10
19224;DHT22;9746;47.180;9.776;2022-08-25T15:01:50;46.40;65.40
19224;DHT22;9746;47.180;9.776;2022-08-25T15:04:21;46.90;65.00
19224;DHT22;9746;47.180;9.776;2022-08-25T15:06:55;46.80;63.50
19224;DHT22;9746;47.180;9.776;2022-08-25T15:09:23;46.80;62.90
19224;DHT22;9746;47.180;9.776;2022-08-25T15:11:52;46.40;62.60
19224;DHT22;9746;47.180;9.776;2022-08-25T15:14:21;46.40;63.70
19224;DHT22;9746;47.180;9.776;2022-08-25T15:16:52;46.90;63.40
19224;DHT22;9746;47.180;9.776;2022-08-25T15:19:23;46.50;62.10
19224;DHT22;9746;47.180;9.776;2022-08-25T15:21:52;46.20;62.90
19224;DHT22;9746;47.180;9.776;2022-08-25T15:24:20;45.70;62.50
19224;DHT22;9746;47.180;9.776;2022-08-25T15:26:52;45.60;63.40
19224;DHT22;9746;47.180;9.776;2022-08-25T15:29:20;45.40;62.90
19224;DHT22;9746;47.180;9.776;2022-08-25T15:31:49;45.20;63.00
19224;DHT22;9746;47.180;9.776;2022-08-25T15:34:17;45.60;63.70
19224;DHT22;9746;47.180;9.776;2022-08-25T15:36:47;46.10;62.60
19224;DHT22;9746;47.180;9.776;2022-08-25T15:39:14;46.40;62.50
19224;DHT22;9746;47.180;9.776;2022-08-25T15:41:41;46.60;62.10
19224;DHT22;9746;47.180;9.776;2022-08-25T15:44:09;46.50;61.10
19224;DHT22;9746;47.180;9.776;2022-08-25T15:46:39;45.40;61.20
19224;DHT22;9746;47.180;9.776;2022-08-25T15:49:08;44.20;62.50
19224;DHT22;9746;47.180;9.776;2022-08-25T15:51:36;43.90;64.20
19224;DHT22;9746;47.180;9.776;2022-08-25T15:54:05;43.90;63.30
19224;DHT22;9746;47.180;9.776;2022-08-25T15:56:32;44.00;63.60
19224;DHT22;9746;47.180;9.776;2022-08-25T15:59:03;44.20;63.50
19224;DHT22;9746;47.180;9.776;2022-08-25T16:01:30;44.40;63.30
19224;DHT22;9746;47.180;9.776;2022-08-25T16:03:58;43.50;63.70
19224;DHT22;9746;47.180;9.776;2022-08-25T16:06:26;42.50;65.40
19224;DHT22;9746;47.180;9.776;2022-08-25T16:08:54;42.30;65.90
19224;DHT22;9746;47.180;9.776;2022-08-25T16:11:25;42.30;66.40
19224;DHT22;9746;47.180;9.776;2022-08-25T16:13:53;41.40;65.90
19224;DHT22;9746;47.180;9.776;2022-08-25T16:16:23;40.10;68.00
19224;DHT22;9746;47.180;9.776;2022-08-25T16:18:51;39.10;69.30
19224;DHT22;9746;47.180;9.776;2022-08-25T16:21:21;37.80;71.30
19224;DHT22;9746;47.180;9.776;2022-08-25T16:23:52;36.90;73.50
19224;DHT22;9746;47.180;9.776;2022-08-25T16:26:23;35.90;74.90
19224;DHT22;9746;47.180;9.776;2022-08-25T16:28:50;35.40;76.50
19224;DHT22;9746;47.180;9.776;2022-08-25T16:31:18;35.00;78.00
19224;DHT22;9746;47.180;9.776;2022-08-25T16:33:46;34.50;79.10
19224;DHT22;9746;47.180;9.776;2022-08-25T16:36:16;34.10;80.20
19224;DHT22;9746;47.180;9.776;2022-08-25T16:38:44;33.80;81.30
19224;DHT22;9746;47.180;9.776;2022-08-25T16:41:14;33.50;82.30
19224;DHT22;9746;47.180;9.776;2022-08-25T16:43:45;33.20;83.20
19224;DHT22;9746;47.180;9.776;2022-08-25T16:46:16;32.90;84.00
19224;DHT22;9746;47.180;9.776;2022-08-25T16:48:44;32.60;84.60
19224;DHT22;9746;47.180;9.776;2022-08-25T16:51:14;32.40;86.10
19224;DHT22;9746;47.180;9.776;2022-08-25T16:53:43;32.10;87.30
19224;DHT22;9746;47.180;9.776;2022-08-25T16:56:27;31.80;88.30
19224;DHT22;9746;47.180;9.776;2022-08-25T16:58:58;31.50;89.20
19224;DHT22;9746;47.180;9.776;2022-08-25T17:01:29;31.40;90.00
19224;DHT22;9746;47.180;9.776;2022-08-25T17:03:59;31.20;90.10
19224;DHT22;9746;47.180;9.776;2022-08-25T17:06:29;31.00;90.10
19224;DHT22;9746;47.180;9.776;2022-08-25T17:09:00;30.90;90.60
19224;DHT22;9746;47.180;9.776;2022-08-25T17:11:29;30.70;90.70
19224;DHT22;9746;47.180;9.776;2022-08-25T17:14:00;30.50;90.90
19224;DHT22;9746;47.180;9.776;2022-08-25T17:16:30;30.30;91.30
19224;DHT22;9746;47.180;9.776;2022-08-25T17:18:59;30.10;91.50
19224;DHT22;9746;47.180;9.776;2022-08-25T17:21:31;29.90;91.90
19224;DHT22;9746;47.180;9.776;2022-08-25T17:24:00;29.70;92.30
19224;DHT22;9746;47.180;9.776;2022-08-25T17:26:29;29.60;92.70
19224;DHT22;9746;47.180;9.776;2022-08-25T17:28:59;29.40;93.20
19224;DHT22;9746;47.180;9.776;2022-08-25T17:31:27;29.20;93.00
19224;DHT22;9746;47.180;9.776;2022-08-25T17:33:55;29.10;93.20
19224;DHT22;9746;47.180;9.776;2022-08-25T17:36:22;29.00;93.50
19224;DHT22;9746;47.180;9.776;2022-08-25T17:38:50;28.80;93.90
19224;DHT22;9746;47.180;9.776;2022-08-25T17:41:17;28.70;94.00
19224;DHT22;9746;47.180;9.776;2022-08-25T17:43:45;28.50;94.20
19224;DHT22;9746;47.180;9.776;2022-08-25T17:46:14;28.40;94.80
19224;DHT22;9746;47.180;9.776;2022-08-25T17:48:42;28.20;94.80
19224;DHT22;9746;47.180;9.776;2022-08-25T17:51:09;28.00;95.10
19224;DHT22;9746;47.180;9.776;2022-08-25T17:53:37;27.90;96.00
19224;DHT22;9746;47.180;9.776;2022-08-25T17:56:06;27.70;95.80
19224;DHT22;9746;47.180;9.776;2022-08-25T17:58:35;27.50;96.40
19224;DHT22;9746;47.180;9.776;2022-08-25T18:01:04;27.40;96.80
19224;DHT22;9746;47.180;9.776;2022-08-25T18:03:33;27.20;97.20
19224;DHT22;9746;47.180;9.776;2022-08-25T18:06:01;26.90;97.20
19224;DHT22;9746;47.180;9.776;2022-08-25T18:08:28;26.80;97.30
19224;DHT22;9746;47.180;9.776;2022-08-25T18:10:56;26.60;97.60
19224;DHT22;9746;47.180;9.776;2022-08-25T18:13:24;26.50;98.60
19224;DHT22;9746;47.180;9.776;2022-08-25T18:15:51;26.40;99.70
19224;DHT22;9746;47.180;9.776;2022-08-25T18:18:19;26.40;99.90
19224;DHT22;9746;47.180;9.776;2022-08-25T18:20:48;26.20;99.90
19224;DHT22;9746;47.180;9.776;2022-08-25T18:23:15;26.00;99.90
19224;DHT22;9746;47.180;9.776;2022-08-25T18:25:44;25.90;99.90
19224;DHT22;9746;47.180;9.776;2022-08-25T18:28:12;25.70;99.90
19224;DHT22;9746;47.180;9.776;2022-08-25T18:30:39;25.50;99.90
19224;DHT22;9746;47.180;9.776;2022-08-25T18:33:07;25.40;99.90
19224;DHT22;9746;47.180;9.776;2022-08-25T18:35:35;25.20;99.90
19224;DHT22;9746;47.180;9.776;2022-08-25T18:38:03;24.90;99.90
19224;DHT22;9746;47.180;9.776;2022-08-25T18:40:54;24.70;99.90
19224;DHT22;9746;47.180;9.776;2022-08-25T18:43:22;24.50;99.90
19224;DHT22;9746;47.180;9.776;2022-08-25T18:45:49;24.30;99.90
19224;DHT22;9746;47.180;9.776;2022-08-25T18:48:18;24.20;99.90
19224;DHT22;9746;47.180;9.776;2022-08-25T18:50:49;24.00;99.90
19224;DHT22;9746;47.180;9.776;2022-08-25T18:53:19;23.90;99.90
19224;DHT22;9746;47.180;9.776;2022-08-25T18:55:48;23.80;99.90
19224;DHT22;9746;47.180;9.776;2022-08-25T18:58:16;23.60;99.90
19224;DHT22;9746;47.180;9.776;2022-08-25T19:00:44;23.40;99.90
19224;DHT22;9746;47.180;9.776;2022-08-25T19:03:13;23.20;99.90
19224;DHT22;9746;47.180;9.776;2022-08-25T19:05:43;22.90;99.90
19224;DHT22;9746;47.180;9.776;2022-08-25T19:08:13;22.70;99.90
19224;DHT22;9746;47.180;9.776;2022-08-25T19:10:47;22.50;99.90
19224;DHT22;9746;47.180;9.776;2022-08-25T19:13:15;22.50;99.90
19224;DHT22;9746;47.180;9.776;2022-08-25T19:15:43;22.40;99.90
19224;DHT22;9746;47.180;9.776;2022-08-25T19:18:11;22.40;99.90
19224;DHT22;9746;47.180;9.776;2022-08-25T19:20:39;22.40;99.90
19224;DHT22;9746;47.180;9.776;2022-08-25T19:23:07;22.40;99.90
19224;DHT22;9746;47.180;9.776;2022-08-25T19:25:36;22.30;99.90
19224;DHT22;9746;47.180;9.776;2022-08-25T19:28:08;22.20;99.90
19224;DHT22;9746;47.180;9.776;2022-08-25T19:30:36;22.20;99.90
19224;DHT22;9746;47.180;9.776;2022-08-25T19:33:05;22.20;99.90
19224;DHT22;9746;47.180;9.776;2022-08-25T19:35:46;22.30;99.90
19224;DHT22;9746;47.180;9.776;2022-08-25T19:38:17;22.40;99.90
19224;DHT22;9746;47.180;9.776;2022-08-25T19:40:45;22.40;99.90
19224;DHT22;9746;47.180;9.776;2022-08-25T19:43:15;22.50;99.90
19224;DHT22;9746;47.180;9.776;2022-08-25T19:45:43;22.50;99.90
19224;DHT22;9746;47.180;9.776;2022-08-25T19:48:14;22.60;99.90
19224;DHT22;9746;47.180;9.776;2022-08-25T19:50:43;22.70;99.90
19224;DHT22;9746;47.180;9.776;2022-08-25T19:53:11;22.80;99.90
19224;DHT22;9746;47.180;9.776;2022-08-25T19:55:38;22.90;99.90
19224;DHT22;9746;47.180;9.776;2022-08-25T19:58:08;23.00;99.90
19224;DHT22;9746;47.180;9.776;2022-08-25T20:00:39;23.00;99.90
19224;DHT22;9746;47.180;9.776;2022-08-25T20:03:07;23.10;99.90
19224;DHT22;9746;47.180;9.776;2022-08-25T20:05:35;23.10;99.90
19224;DHT22;9746;47.180;9.776;2022-08-25T20:08:03;23.10;99.90
19224;DHT22;9746;47.180;9.776;2022-08-25T20:10:32;23.10;99.90
19224;DHT22;9746;47.180;9.776;2022-08-25T20:13:00;23.10;99.90
19224;DHT22;9746;47.180;9.776;2022-08-25T20:15:28;23.00;99.90
19224;DHT22;9746;47.180;9.776;2022-08-25T20:17:59;23.00;99.90
19224;DHT22;9746;47.180;9.776;2022-08-25T20:20:27;23.00;99.90
19224;DHT22;9746;47.180;9.776;2022-08-25T20:22:55;22.90;99.90
